Etusivu
METAR-TAF:

METAR-TAF

Lentoasemat :

Chignik, Alaska, Yhdysvallat

Leveyspiiri: 56-18-41N, Pituuspiiri: 158-22-24W, korkeus merenpinnasta: 6 m

Tämänhetkinen sää

Tämä raportti tehtiin 29 minuuttia sitten, kello 13.57 UTC
Tuuli 11 kn lounaasta
Lämpötila 10°C
Kosteus 82%
Ilmanpaine 1013 hPa
Näkyvyys: 16.1 km
selkeää

METAR: PAJC 231357Z AUTO 23011KT 10SM CLR 10/07 A2991 RMK AO2 SLP127 T01000072 $

Aika: 06:26 (14:26 UTC)


TAF: puuttuu

Säähavainnot ja -ennusteet yli 4000 lentoasemalta (METAR- ja TAF-raportit).

Käytössä olevat sääasemat on merkitty karttaan keltaisilla ja punaisilla pisteillä.

Aseta hiiri pisteen päälle nähdäksesi sääaseman nimen.

Klikkaa sitten nähdäksesi säähavainnot ja -ennusteet.

Kartan vaihtaminen: klikkaa mustalla rastilla varustettuja vihreitä pisteitä, niin voit zoomata sisään; viivalla varustettua vihreää pistettä, niin voit zoomata ulos tai vihreitä nuolia, niin pääset viereisille kartoille.


METAR-TAF: